Time,TemperatureF,DewpointF,PressureIn,WindDirection,WindDirectionDegrees,WindSpeedMPH,WindSpeedGustMPH,Humidity,HourlyPrecipIn,Conditions,Clouds,dailyrainin,SoftwareType,DateUTC
2013-08-08 00:00:00,76.1,71.6,30.15,SSW,202,0.0,0.0,86,0.00,,---,0.00,VWS V14.01,2013-08-08 04:00:00,
2013-08-08 00:01:00,76.1,71.6,30.15,SSW,202,0.0,0.0,86,0.00,,---,0.00,VWS V14.01,2013-08-08 04:01:00,
2013-08-08 00:06:00,76.1,71.9,30.15,ENE,68,0.0,0.0,87,0.00,,---,0.00,VWS V14.01,2013-08-08 04:06:00,
2013-08-08 00:11:00,76.1,71.6,30.15,ESE,112,0.0,0.0,86,0.00,,---,0.00,VWS V14.01,2013-08-08 04:11:00,
2013-08-08 00:16:00,76.1,71.6,30.15,South,180,0.0,2.5,86,0.00,,---,0.00,VWS V14.01,2013-08-08 04:16:00,
2013-08-08 00:21:00,76.1,71.6,30.15,NNW,338,0.0,2.0,86,0.00,,---,0.00,VWS V14.01,2013-08-08 04:21:00,
2013-08-08 00:26:00,76.1,71.6,30.15,NW,315,2.2,2.2,86,0.00,,---,0.00,VWS V14.01,2013-08-08 04:26:00,
2013-08-08 00:31:00,76.1,71.6,30.15,NNW,338,0.0,2.2,86,0.00,,---,0.00,VWS V14.01,2013-08-08 04:31:00,
2013-08-08 00:36:00,76.3,71.8,30.15,NNW,338,0.0,0.0,86,0.00,,---,0.00,VWS V14.01,2013-08-08 04:36:00,
2013-08-08 00:41:00,75.9,71.1,30.15,SSE,158,0.0,1.3,85,0.00,,---,0.00,VWS V14.01,2013-08-08 04:41:00,
2013-08-08 00:46:00,76.1,71.3,30.15,East,90,0.0,0.0,85,0.00,,---,0.00,VWS V14.01,2013-08-08 04:46:00,
2013-08-08 00:51:00,75.9,70.7,30.15,ESE,112,0.9,2.5,84,0.00,,---,0.00,VWS V14.01,2013-08-08 04:51:00,
2013-08-08 00:56:00,75.7,70.9,30.15,NNE,22,2.2,3.1,85,0.00,,---,0.00,VWS V14.01,2013-08-08 04:56:00,
2013-08-08 01:01:00,75.7,70.9,30.15,SSE,158,0.0,0.0,85,0.00,,---,0.00,VWS V14.01,2013-08-08 05:01:00,
2013-08-08 01:06:00,75.6,70.7,30.15,ESE,112,0.0,1.3,85,0.00,,---,0.00,VWS V14.01,2013-08-08 05:06:00,
2013-08-08 01:11:00,75.6,70.7,30.15,ESE,112,0.0,0.0,85,0.00,,---,0.00,VWS V14.01,2013-08-08 05:11:00,
2013-08-08 01:16:00,75.4,70.6,30.15,NNW,338,0.0,0.0,85,0.00,,---,0.00,VWS V14.01,2013-08-08 05:16:00,
2013-08-08 01:21:00,75.4,70.6,30.15,NNW,338,0.0,0.0,85,0.00,,---,0.00,VWS V14.01,2013-08-08 05:21:00,
2013-08-08 01:26:00,75.4,70.9,30.15,WNW,292,0.0,0.0,86,0.00,,---,0.00,VWS V14.01,2013-08-08 05:26:00,
2013-08-08 01:31:00,75.4,70.9,30.15,North,0,4.0,4.0,86,0.00,,---,0.00,VWS V14.01,2013-08-08 05:31:00,
2013-08-08 01:36:00,75.6,71.4,30.15,SSE,158,0.0,0.0,87,0.00,,---,0.00,VWS V14.01,2013-08-08 05:36:00,
2013-08-08 01:41:00,75.6,71.4,30.15,NNW,338,0.0,1.3,87,0.00,,---,0.00,VWS V14.01,2013-08-08 05:41:00,
2013-08-08 01:46:00,75.4,70.9,30.15,NW,315,0.0,0.0,86,0.00,,---,0.00,VWS V14.01,2013-08-08 05:46:00,
2013-08-08 01:51:00,75.4,70.9,30.15,South,180,0.0,0.0,86,0.00,,---,0.00,VWS V14.01,2013-08-08 05:51:00,
2013-08-08 01:56:00,75.2,70.7,30.15,South,180,0.0,0.0,86,0.00,,---,0.00,VWS V14.01,2013-08-08 05:56:00,
2013-08-08 02:01:00,75.2,70.7,30.15,SSE,158,0.0,0.0,86,0.00,,---,0.00,VWS V14.01,2013-08-08 06:01:00,
2013-08-08 02:06:00,75.0,70.6,30.15,SSE,158,0.0,0.0,86,0.00,,---,0.00,VWS V14.01,2013-08-08 06:06:00,
2013-08-08 02:11:00,74.8,70.7,30.15,SSE,158,0.0,0.0,87,0.00,,---,0.00,VWS V14.01,2013-08-08 06:11:00,
2013-08-08 02:16:00,74.8,70.7,30.15,SSE,158,2.2,2.2,87,0.00,,---,0.00,VWS V14.01,2013-08-08 06:16:00,
2013-08-08 02:21:00,74.8,70.7,30.15,SSE,158,0.0,0.0,87,0.00,,---,0.00,VWS V14.01,2013-08-08 06:21:00,
2013-08-08 02:26:00,74.8,70.7,30.15,SSE,158,0.0,0.0,87,0.00,,---,0.00,VWS V14.01,2013-08-08 06:26:00,
2013-08-08 02:31:00,74.8,70.7,30.15,SSE,158,0.0,0.0,87,0.00,,---,0.00,VWS V14.01,2013-08-08 06:31:00,
2013-08-08 02:36:00,74.7,70.5,30.15,SSE,158,0.0,0.0,87,0.00,,---,0.00,VWS V14.01,2013-08-08 06:36:00,
2013-08-08 02:41:00,74.5,70.4,30.15,SSE,158,0.0,0.0,87,0.00,,---,0.00,VWS V14.01,2013-08-08 06:41:00,
2013-08-08 02:46:00,74.5,70.4,30.15,SSE,158,0.0,0.0,87,0.00,,---,0.00,VWS V14.01,2013-08-08 06:46:00,
2013-08-08 02:51:00,74.3,70.2,30.15,SSE,158,0.0,0.0,87,0.00,,---,0.00,VWS V14.01,2013-08-08 06:51:00,
2013-08-08 02:56:00,74.3,70.2,30.12,SSE,158,0.0,0.0,87,0.00,,---,0.00,VWS V14.01,2013-08-08 06:56:00,
2013-08-08 03:01:00,74.1,70.0,30.12,SSE,158,0.0,0.0,87,0.00,,---,0.00,VWS V14.01,2013-08-08 07:01:00,
2013-08-08 03:06:00,74.1,70.3,30.12,SSE,158,0.0,0.0,88,0.00,,---,0.00,VWS V14.01,2013-08-08 07:06:00,
2013-08-08 03:11:00,73.9,70.2,30.12,SSE,158,0.0,0.0,88,0.00,,---,0.00,VWS V14.01,2013-08-08 07:11:00,
2013-08-08 03:16:00,73.9,70.2,30.12,SSE,158,0.0,0.0,88,0.00,,---,0.00,VWS V14.01,2013-08-08 07:16:00,
2013-08-08 03:21:00,73.9,70.2,30.12,South,180,0.0,0.0,88,0.00,,---,0.00,VWS V14.01,2013-08-08 07:21:00,
2013-08-08 03:26:00,73.9,70.2,30.12,South,180,0.0,0.0,88,0.00,,---,0.00,VWS V14.01,2013-08-08 07:26:00,
2013-08-08 03:31:00,73.9,70.5,30.12,ENE,68,0.0,0.0,89,0.00,,---,0.00,VWS V14.01,2013-08-08 07:31:00,
2013-08-08 03:36:00,74.1,70.7,30.12,ENE,68,0.0,0.0,89,0.00,,---,0.00,VWS V14.01,2013-08-08 07:36:00,
2013-08-08 03:41:00,73.9,70.5,30.12,South,180,0.0,0.0,89,0.00,,---,0.00,VWS V14.01,2013-08-08 07:41:00,
2013-08-08 03:46:00,73.9,70.5,30.12,ESE,112,0.0,0.0,89,0.00,,---,0.00,VWS V14.01,2013-08-08 07:46:00,
2013-08-08 03:51:00,73.9,70.2,30.12,SE,135,0.0,0.0,88,0.00,,---,0.00,VWS V14.01,2013-08-08 07:51:00,
2013-08-08 03:55:00,73.9,70.2,30.09,ESE,112,0.0,0.0,88,0.00,,---,0.00,VWS V14.01,2013-08-08 07:55:00,
2013-08-08 04:00:00,73.9,70.2,30.09,WNW,292,0.0,1.1,88,0.00,,---,0.00,VWS V14.01,2013-08-08 08:00:00,
2013-08-08 04:05:00,73.8,70.0,30.09,East,90,0.0,1.3,88,0.00,,---,0.00,VWS V14.01,2013-08-08 08:05:00,
2013-08-08 04:10:00,73.8,70.3,30.12,ESE,112,0.0,0.0,89,0.00,,---,0.00,VWS V14.01,2013-08-08 08:10:00,
2013-08-08 04:15:00,73.8,70.0,30.12,SE,135,2.0,2.0,88,0.00,,---,0.00,VWS V14.01,2013-08-08 08:15:00,
2013-08-08 04:20:00,73.8,70.3,30.12,SE,135,0.0,0.0,89,0.00,,---,0.00,VWS V14.01,2013-08-08 08:20:00,
2013-08-08 04:25:00,73.8,70.3,30.12,SE,135,0.0,0.0,89,0.00,,---,0.00,VWS V14.01,2013-08-08 08:25:00,
2013-08-08 04:30:00,73.6,70.1,30.12,SE,135,0.0,0.0,89,0.00,,---,0.00,VWS V14.01,2013-08-08 08:30:00,
2013-08-08 04:35:00,73.8,70.3,30.12,ENE,68,0.0,0.0,89,0.00,,---,0.00,VWS V14.01,2013-08-08 08:35:00,
2013-08-08 04:40:00,73.9,70.5,30.12,NNE,22,0.0,1.3,89,0.00,,---,0.00,VWS V14.01,2013-08-08 08:40:00,
2013-08-08 04:41:00,73.9,70.5,30.12,NNE,22,0.0,1.3,89,0.00,,---,0.00,VWS V14.01,2013-08-08 08:41:00,
2013-08-08 04:46:00,73.9,70.5,30.12,ENE,68,0.0,0.0,89,0.00,,---,0.00,VWS V14.01,2013-08-08 08:46:00,
2013-08-08 04:51:00,73.9,70.5,30.12,NNE,22,0.0,2.0,89,0.00,,---,0.00,VWS V14.01,2013-08-08 08:51:00,
2013-08-08 04:56:00,74.1,70.7,30.09,ESE,112,0.0,1.3,89,0.00,,---,0.00,VWS V14.01,2013-08-08 08:56:00,
2013-08-08 05:01:00,74.1,70.7,30.09,SSE,158,1.3,1.3,89,0.00,,---,0.00,VWS V14.01,2013-08-08 09:01:00,
2013-08-08 05:06:00,74.1,70.7,30.09,South,180,0.0,0.0,89,0.00,,---,0.00,VWS V14.01,2013-08-08 09:06:00,
2013-08-08 05:11:00,73.9,70.2,30.09,SSE,158,0.0,0.0,88,0.00,,---,0.00,VWS V14.01,2013-08-08 09:11:00,
2013-08-08 05:16:00,73.8,70.0,30.09,SSE,158,0.0,0.0,88,0.00,,---,0.00,VWS V14.01,2013-08-08 09:16:00,
2013-08-08 05:21:00,73.8,70.0,30.09,SSE,158,0.0,0.0,88,0.00,,---,0.00,VWS V14.01,2013-08-08 09:21:00,
2013-08-08 05:26:00,73.8,70.0,30.09,ENE,68,0.0,0.0,88,0.00,,---,0.00,VWS V14.01,2013-08-08 09:26:00,
2013-08-08 05:31:00,73.6,69.8,30.09,SE,135,2.7,2.7,88,0.00,,---,0.00,VWS V14.01,2013-08-08 09:31:00,
2013-08-08 05:36:00,73.6,70.1,30.09,South,180,0.0,0.0,89,0.00,,---,0.00,VWS V14.01,2013-08-08 09:36:00,
2013-08-08 05:41:00,73.6,70.1,30.12,SSE,158,0.0,0.0,89,0.00,,---,0.00,VWS V14.01,2013-08-08 09:41:00,
2013-08-08 05:46:00,73.4,70.0,30.12,SSE,158,0.0,0.0,89,0.00,,---,0.00,VWS V14.01,2013-08-08 09:46:00,
2013-08-08 05:51:00,73.2,69.8,30.12,South,180,0.0,0.0,89,0.00,,---,0.00,VWS V14.01,2013-08-08 09:51:00,
2013-08-08 05:56:00,73.2,69.8,30.12,South,180,0.0,0.0,89,0.00,,---,0.00,VWS V14.01,2013-08-08 09:56:00,
2013-08-08 06:01:00,73.2,70.1,30.12,South,180,0.0,0.0,90,0.00,,---,0.00,VWS V14.01,2013-08-08 10:01:00,
2013-08-08 06:06:00,73.0,69.9,30.12,South,180,0.0,0.0,90,0.00,,---,0.00,VWS V14.01,2013-08-08 10:06:00,
2013-08-08 06:11:00,73.0,69.9,30.12,South,180,0.0,0.0,90,0.00,,---,0.00,VWS V14.01,2013-08-08 10:11:00,
2013-08-08 06:16:00,73.0,69.9,30.12,ENE,68,0.0,0.0,90,0.00,,---,0.00,VWS V14.01,2013-08-08 10:16:00,
2013-08-08 06:21:00,72.9,69.8,30.12,ESE,112,0.0,0.0,90,0.00,,---,0.00,VWS V14.01,2013-08-08 10:21:00,
2013-08-08 06:26:00,73.0,69.9,30.12,ESE,112,0.0,0.0,90,0.00,,---,0.00,VWS V14.01,2013-08-08 10:26:00,
2013-08-08 06:31:00,73.0,70.3,30.12,ESE,112,0.0,0.0,91,0.00,,---,0.00,VWS V14.01,2013-08-08 10:31:00,
2013-08-08 06:36:00,73.0,70.3,30.12,ESE,112,0.0,0.0,91,0.00,,---,0.00,VWS V14.01,2013-08-08 10:36:00,
2013-08-08 06:41:00,73.0,70.3,30.15,SSE,158,0.0,0.0,91,0.00,,---,0.00,VWS V14.01,2013-08-08 10:41:00,
2013-08-08 06:46:00,73.2,70.4,30.15,NW,315,0.0,2.9,91,0.00,,---,0.00,VWS V14.01,2013-08-08 10:46:00,
2013-08-08 06:51:00,73.4,70.6,30.15,SW,225,0.0,0.0,91,0.00,,---,0.00,VWS V14.01,2013-08-08 10:51:00,
2013-08-08 06:56:00,73.6,70.8,30.15,SSW,202,0.0,0.0,91,0.00,,---,0.00,VWS V14.01,2013-08-08 10:56:00,
2013-08-08 07:01:00,73.6,70.8,30.15,SSW,202,0.0,0.0,91,0.00,,---,0.00,VWS V14.01,2013-08-08 11:01:00,
2013-08-08 07:06:00,73.6,70.8,30.15,South,180,0.0,0.0,91,0.00,,---,0.00,VWS V14.01,2013-08-08 11:06:00,
2013-08-08 07:11:00,73.8,71.0,30.15,South,180,0.0,0.0,91,0.00,,---,0.00,VWS V14.01,2013-08-08 11:11:00,
2013-08-08 07:16:00,73.9,71.2,30.15,South,180,0.0,0.0,91,0.00,,---,0.00,VWS V14.01,2013-08-08 11:16:00,
2013-08-08 07:21:00,74.1,71.3,30.15,South,180,0.0,0.0,91,0.00,,---,0.00,VWS V14.01,2013-08-08 11:21:00,
2013-08-08 07:26:00,74.3,71.5,30.15,NNE,22,1.3,1.3,91,0.00,,---,0.00,VWS V14.01,2013-08-08 11:26:00,
2013-08-08 07:31:00,74.8,72.0,30.15,ENE,68,0.0,0.0,91,0.00,,---,0.00,VWS V14.01,2013-08-08 11:31:00,
2013-08-08 07:36:00,75.6,72.4,30.15,East,90,0.0,0.0,90,0.00,,---,0.00,VWS V14.01,2013-08-08 11:36:00,
2013-08-08 07:41:00,76.6,73.5,30.15,NE,45,1.1,2.5,90,0.00,,---,0.00,VWS V14.01,2013-08-08 11:41:00,
2013-08-08 07:46:00,78.6,74.4,30.15,ENE,68,0.0,1.6,87,0.00,,---,0.00,VWS V14.01,2013-08-08 11:46:00,
2013-08-08 07:51:00,79.2,73.6,30.15,North,0,0.9,0.9,83,0.00,,---,0.00,VWS V14.01,2013-08-08 11:51:00,
2013-08-08 07:56:00,80.2,73.1,30.15,ENE,68,1.1,2.0,79,0.00,,---,0.00,VWS V14.01,2013-08-08 11:56:00,
2013-08-08 08:01:00,80.2,72.4,30.15,North,0,2.5,2.5,77,0.00,,---,0.00,VWS V14.01,2013-08-08 12:01:00,
2013-08-08 08:05:00,81.0,71.9,30.15,ENE,68,0.9,1.6,74,0.00,,---,0.00,VWS V14.01,2013-08-08 12:05:00,
2013-08-08 08:11:00,81.3,71.8,30.15,NE,45,0.0,1.3,73,0.00,,---,0.00,VWS V14.01,2013-08-08 12:11:00,
2013-08-08 08:16:00,82.0,71.3,30.15,ENE,68,0.0,1.1,70,0.00,,---,0.00,VWS V14.01,2013-08-08 12:16:00,
2013-08-08 08:20:00,82.8,72.0,30.15,NNW,338,1.6,1.6,70,0.00,,---,0.00,VWS V14.01,2013-08-08 12:20:00,
2013-08-08 08:25:00,82.9,70.9,30.15,ESE,112,0.0,0.0,67,0.00,,---,0.00,VWS V14.01,2013-08-08 12:25:00,
2013-08-08 08:30:00,81.9,69.8,30.15,ENE,68,0.0,0.0,67,0.00,,---,0.00,VWS V14.01,2013-08-08 12:30:00,
2013-08-08 08:35:00,82.2,70.2,30.15,ENE,68,0.0,0.0,67,0.00,,---,0.00,VWS V14.01,2013-08-08 12:35:00,
2013-08-08 08:40:00,81.9,69.4,30.15,NE,45,1.6,3.1,66,0.00,,---,0.00,VWS V14.01,2013-08-08 12:40:00,
2013-08-08 08:45:00,83.1,70.1,30.15,SSE,158,0.9,2.9,65,0.00,,---,0.00,VWS V14.01,2013-08-08 12:45:00,
2013-08-08 08:50:00,83.8,70.8,30.15,NNE,22,1.1,3.1,65,0.00,,---,0.00,VWS V14.01,2013-08-08 12:50:00,
2013-08-08 08:55:00,83.8,69.4,30.15,WSW,248,0.0,2.7,62,0.00,,---,0.00,VWS V14.01,2013-08-08 12:55:00,
2013-08-08 09:00:00,84.7,69.8,30.15,NNW,338,0.0,3.8,61,0.00,,---,0.00,VWS V14.01,2013-08-08 13:00:00,
2013-08-08 09:05:00,84.4,69.0,30.15,NE,45,0.9,2.5,60,0.00,,---,0.00,VWS V14.01,2013-08-08 13:05:00,
2013-08-08 09:10:00,83.3,68.5,30.15,North,0,2.5,3.1,61,0.00,,---,0.00,VWS V14.01,2013-08-08 13:10:00,
2013-08-08 09:15:00,81.7,67.9,30.15,ESE,112,0.0,0.0,63,0.00,,---,0.00,VWS V14.01,2013-08-08 13:15:00,
2013-08-08 09:20:00,82.9,69.5,30.15,ENE,68,0.0,0.0,64,0.00,,---,0.00,VWS V14.01,2013-08-08 13:20:00,
2013-08-08 09:25:00,83.5,69.6,30.15,East,90,0.0,1.3,63,0.00,,---,0.00,VWS V14.01,2013-08-08 13:25:00,
2013-08-08 09:30:00,83.3,69.4,30.15,North,0,0.9,2.5,63,0.00,,---,0.00,VWS V14.01,2013-08-08 13:30:00,
2013-08-08 09:35:00,84.2,69.8,30.15,NNE,22,3.4,3.4,62,0.00,,---,0.00,VWS V14.01,2013-08-08 13:35:00,
2013-08-08 09:40:00,84.7,68.8,30.15,NE,45,2.2,2.9,59,0.00,,---,0.00,VWS V14.01,2013-08-08 13:40:00,
2013-08-08 09:45:00,84.7,69.3,30.15,ENE,68,1.6,2.5,60,0.00,,---,0.00,VWS V14.01,2013-08-08 13:45:00,
2013-08-08 09:50:00,84.9,69.0,30.15,North,0,0.9,2.5,59,0.00,,---,0.00,VWS V14.01,2013-08-08 13:50:00,
2013-08-08 09:55:00,84.4,68.0,30.15,ENE,68,2.7,3.1,58,0.00,,---,0.00,VWS V14.01,2013-08-08 13:55:00,
2013-08-08 10:00:00,84.9,69.0,30.15,ESE,112,3.1,3.1,59,0.00,,---,0.00,VWS V14.01,2013-08-08 14:00:00,
2013-08-08 10:05:00,84.6,69.2,30.15,North,0,2.9,2.9,60,0.00,,---,0.00,VWS V14.01,2013-08-08 14:05:00,
2013-08-08 10:10:00,84.2,67.8,30.15,NNE,22,3.1,3.1,58,0.00,,---,0.00,VWS V14.01,2013-08-08 14:10:00,
2013-08-08 10:15:00,84.2,68.8,30.15,ENE,68,3.6,3.6,60,0.00,,---,0.00,VWS V14.01,2013-08-08 14:15:00,
2013-08-08 10:20:00,84.4,69.0,30.15,NNE,22,2.5,4.0,60,0.00,,---,0.00,VWS V14.01,2013-08-08 14:20:00,
2013-08-08 10:25:00,84.2,68.8,30.12,NNW,338,4.0,4.0,60,0.00,,---,0.00,VWS V14.01,2013-08-08 14:25:00,
2013-08-08 10:30:00,83.7,69.3,30.12,North,0,4.3,4.3,62,0.00,,---,0.00,VWS V14.01,2013-08-08 14:30:00,
2013-08-08 10:35:00,83.1,69.2,30.12,NNE,22,3.8,4.7,63,0.00,,---,0.00,VWS V14.01,2013-08-08 14:35:00,
2013-08-08 10:40:00,82.6,69.2,30.12,SSW,202,2.5,3.4,64,0.00,,---,0.00,VWS V14.01,2013-08-08 14:40:00,
2013-08-08 10:45:00,82.4,69.0,30.12,NNE,22,3.1,4.0,64,0.00,,---,0.00,VWS V14.01,2013-08-08 14:45:00,
2013-08-08 10:50:00,82.4,69.5,30.12,ENE,68,4.3,4.3,65,0.00,,---,0.00,VWS V14.01,2013-08-08 14:50:00,
2013-08-08 10:55:00,82.6,70.1,30.12,NNE,22,4.7,4.7,66,0.00,,---,0.00,VWS V14.01,2013-08-08 14:55:00,
2013-08-08 11:00:00,82.6,70.1,30.12,NNE,22,3.8,3.8,66,0.00,,---,0.00,VWS V14.01,2013-08-08 15:00:00,
2013-08-08 11:05:00,82.4,69.9,30.12,NNW,338,3.4,3.4,66,0.00,,---,0.00,VWS V14.01,2013-08-08 15:05:00,
2013-08-08 11:10:00,82.2,70.6,30.12,NNE,22,3.6,4.0,68,0.00,,---,0.00,VWS V14.01,2013-08-08 15:10:00,
2013-08-08 11:15:00,82.0,70.4,30.12,NNE,22,4.3,4.3,68,0.00,,---,0.00,VWS V14.01,2013-08-08 15:15:00,
2013-08-08 11:20:00,81.9,70.7,30.12,NE,45,3.8,3.8,69,0.00,,---,0.00,VWS V14.01,2013-08-08 15:20:00,
2013-08-08 11:25:00,81.7,70.5,30.12,NNE,22,4.3,4.3,69,0.00,,---,0.00,VWS V14.01,2013-08-08 15:25:00,
2013-08-08 11:30:00,81.7,70.5,30.12,NNE,22,3.8,4.0,69,0.00,,---,0.00,VWS V14.01,2013-08-08 15:30:00,
2013-08-08 11:35:00,81.9,70.7,30.12,NNE,22,2.7,3.8,69,0.00,,---,0.00,VWS V14.01,2013-08-08 15:35:00,
2013-08-08 11:40:00,81.7,70.9,30.12,NNE,22,3.8,4.3,70,0.00,,---,0.00,VWS V14.01,2013-08-08 15:40:00,
2013-08-08 11:45:00,81.5,70.8,30.12,NNE,22,2.9,4.0,70,0.00,,---,0.00,VWS V14.01,2013-08-08 15:45:00,
2013-08-08 11:50:00,81.5,70.8,30.12,NE,45,3.6,3.8,70,0.00,,---,0.00,VWS V14.01,2013-08-08 15:50:00,
2013-08-08 11:55:00,81.5,71.2,30.12,NE,45,5.4,5.4,71,0.00,,---,0.00,VWS V14.01,2013-08-08 15:55:00,
2013-08-08 12:00:00,81.7,71.8,30.12,NNE,22,2.7,4.3,72,0.00,,---,0.00,VWS V14.01,2013-08-08 16:00:00,
2013-08-08 12:05:00,81.9,71.9,30.12,North,0,3.4,3.4,72,0.00,,---,0.00,VWS V14.01,2013-08-08 16:05:00,
2013-08-08 12:10:00,82.0,71.7,30.09,NNE,22,2.5,5.4,71,0.00,,---,0.00,VWS V14.01,2013-08-08 16:10:00,
2013-08-08 12:15:00,82.0,71.7,30.09,NNE,22,2.9,3.4,71,0.00,,---,0.00,VWS V14.01,2013-08-08 16:15:00,
2013-08-08 12:20:00,82.0,71.3,30.09,North,0,4.9,4.9,70,0.00,,---,0.00,VWS V14.01,2013-08-08 16:20:00,
2013-08-08 12:25:00,82.0,71.7,30.09,ENE,68,3.8,5.4,71,0.00,,---,0.00,VWS V14.01,2013-08-08 16:25:00,
2013-08-08 12:30:00,82.2,71.9,30.09,NNE,22,2.9,4.3,71,0.00,,---,0.00,VWS V14.01,2013-08-08 16:30:00,
2013-08-08 12:35:00,82.6,71.8,30.09,North,0,3.6,3.8,70,0.00,,---,0.00,VWS V14.01,2013-08-08 16:35:00,
2013-08-08 12:40:00,82.6,71.8,30.09,NNE,22,4.0,4.0,70,0.00,,---,0.00,VWS V14.01,2013-08-08 16:40:00,
2013-08-08 12:45:00,82.6,71.4,30.09,NNE,22,3.8,3.8,69,0.00,,---,0.00,VWS V14.01,2013-08-08 16:45:00,
2013-08-08 12:50:00,82.8,71.1,30.09,NNE,22,1.6,4.3,68,0.00,,---,0.00,VWS V14.01,2013-08-08 16:50:00,
2013-08-08 12:55:00,82.8,71.1,30.09,NNE,22,5.4,5.4,68,0.00,,---,0.00,VWS V14.01,2013-08-08 16:55:00,
2013-08-08 13:00:00,82.8,71.1,30.09,NNW,338,2.7,6.3,68,0.00,,---,0.00,VWS V14.01,2013-08-08 17:00:00,
2013-08-08 13:05:00,82.9,71.3,30.09,NE,45,5.4,5.8,68,0.00,,---,0.00,VWS V14.01,2013-08-08 17:05:00,
2013-08-08 13:10:00,82.8,71.1,30.09,NE,45,3.4,4.3,68,0.00,,---,0.00,VWS V14.01,2013-08-08 17:10:00,
2013-08-08 13:15:00,82.6,70.5,30.09,NNE,22,3.6,6.5,67,0.00,,---,0.00,VWS V14.01,2013-08-08 17:15:00,
2013-08-08 13:20:00,82.6,71.0,30.09,NNW,338,3.8,4.9,68,0.00,,---,0.00,VWS V14.01,2013-08-08 17:20:00,
2013-08-08 13:25:00,82.4,71.2,30.09,NE,45,3.8,4.0,69,0.00,,---,0.00,VWS V14.01,2013-08-08 17:25:00,
2013-08-08 13:30:00,82.4,71.2,30.09,NNE,22,4.9,4.9,69,0.00,,---,0.00,VWS V14.01,2013-08-08 17:30:00,
2013-08-08 13:35:00,82.6,71.4,30.09,ENE,68,4.0,5.8,69,0.00,,---,0.00,VWS V14.01,2013-08-08 17:35:00,
2013-08-08 13:40:00,82.8,71.6,30.09,NNE,22,3.8,4.9,69,0.00,,---,0.00,VWS V14.01,2013-08-08 17:40:00,
2013-08-08 13:45:00,82.8,72.0,30.09,NNW,338,4.0,4.3,70,0.00,,---,0.00,VWS V14.01,2013-08-08 17:45:00,
2013-08-08 13:50:00,82.8,71.6,30.09,NNW,338,2.9,3.6,69,0.00,,---,0.00,VWS V14.01,2013-08-08 17:50:00,
2013-08-08 13:55:00,82.9,72.2,30.09,NNW,338,3.6,4.3,70,0.00,,---,0.00,VWS V14.01,2013-08-08 17:55:00,
2013-08-08 14:00:00,82.9,72.2,30.09,NNW,338,1.1,3.4,70,0.00,,---,0.00,VWS V14.01,2013-08-08 18:00:00,
2013-08-08 14:05:00,83.1,72.3,30.09,NE,45,4.9,5.4,70,0.00,,---,0.00,VWS V14.01,2013-08-08 18:05:00,
2013-08-08 14:10:00,82.9,72.2,30.09,North,0,4.3,4.3,70,0.00,,---,0.00,VWS V14.01,2013-08-08 18:10:00,
2013-08-08 14:15:00,82.9,72.2,30.09,NE,45,4.7,4.7,70,0.00,,---,0.00,VWS V14.01,2013-08-08 18:15:00,
2013-08-08 14:20:00,82.8,72.4,30.09,NNE,22,5.4,5.4,71,0.00,,---,0.00,VWS V14.01,2013-08-08 18:20:00,
2013-08-08 14:25:00,82.6,72.2,30.09,NNE,22,4.3,5.4,71,0.00,,---,0.00,VWS V14.01,2013-08-08 18:25:00,
2013-08-08 14:30:00,82.6,72.2,30.09,NNW,338,3.8,5.4,71,0.00,,---,0.00,VWS V14.01,2013-08-08 18:30:00,
2013-08-08 14:35:00,82.6,72.2,30.09,NNE,22,4.3,4.3,71,0.00,,---,0.00,VWS V14.01,2013-08-08 18:35:00,
2013-08-08 14:40:00,82.6,72.2,30.09,NNW,338,5.4,5.4,71,0.00,,---,0.00,VWS V14.01,2013-08-08 18:40:00,
2013-08-08 14:45:00,82.6,72.2,30.09,NNE,22,3.4,5.8,71,0.00,,---,0.00,VWS V14.01,2013-08-08 18:45:00,
2013-08-08 14:50:00,82.2,71.5,30.09,WNW,292,3.6,3.6,70,0.00,,---,0.00,VWS V14.01,2013-08-08 18:50:00,
2013-08-08 14:55:00,82.2,71.9,30.09,ENE,68,3.6,4.0,71,0.00,,---,0.00,VWS V14.01,2013-08-08 18:55:00,
2013-08-08 15:00:00,82.4,72.1,30.09,NNW,338,5.4,5.4,71,0.00,,---,0.00,VWS V14.01,2013-08-08 19:00:00,
2013-08-08 15:05:00,82.6,71.8,30.09,NNW,338,3.6,4.0,70,0.00,,---,0.00,VWS V14.01,2013-08-08 19:05:00,
2013-08-08 15:10:00,82.6,71.8,30.09,ENE,68,4.0,4.0,70,0.00,,---,0.00,VWS V14.01,2013-08-08 19:10:00,
2013-08-08 15:15:00,82.6,71.4,30.09,East,90,2.9,3.6,69,0.00,,---,0.00,VWS V14.01,2013-08-08 19:15:00,
2013-08-08 15:20:00,82.6,71.8,30.09,NNE,22,3.4,3.4,70,0.00,,---,0.00,VWS V14.01,2013-08-08 19:20:00,
2013-08-08 15:25:00,82.6,72.2,30.09,NNE,22,4.0,4.0,71,0.00,,---,0.00,VWS V14.01,2013-08-08 19:25:00,
2013-08-08 15:30:00,82.6,72.2,30.09,NNW,338,3.4,3.4,71,0.00,,---,0.00,VWS V14.01,2013-08-08 19:30:00,
2013-08-08 15:35:00,82.6,72.2,30.09,ENE,68,2.9,3.1,71,0.00,,---,0.00,VWS V14.01,2013-08-08 19:35:00,
2013-08-08 15:40:00,82.6,71.8,30.09,NNE,22,3.8,4.0,70,0.00,,---,0.00,VWS V14.01,2013-08-08 19:40:00,
2013-08-08 15:45:00,82.6,71.8,30.09,NNE,22,2.5,3.4,70,0.00,,---,0.00,VWS V14.01,2013-08-08 19:45:00,
2013-08-08 15:50:00,82.8,72.4,30.09,NNE,22,2.7,3.1,71,0.00,,---,0.00,VWS V14.01,2013-08-08 19:50:00,
2013-08-08 15:55:00,82.9,72.2,30.09,NE,45,4.3,4.3,70,0.00,,---,0.00,VWS V14.01,2013-08-08 19:55:00,
2013-08-08 16:00:00,82.9,72.2,30.09,ENE,68,4.3,4.3,70,0.00,,---,0.00,VWS V14.01,2013-08-08 20:00:00,
2013-08-08 16:05:00,82.9,72.2,30.09,NNW,338,3.8,4.9,70,0.00,,---,0.00,VWS V14.01,2013-08-08 20:05:00,
2013-08-08 16:10:00,82.9,71.7,30.06,NNE,22,1.6,3.8,69,0.00,,---,0.00,VWS V14.01,2013-08-08 20:10:00,
2013-08-08 16:15:00,82.9,72.2,30.06,NW,315,4.3,4.3,70,0.00,,---,0.00,VWS V14.01,2013-08-08 20:15:00,
2013-08-08 16:20:00,83.1,71.9,30.06,NNE,22,2.2,4.0,69,0.00,,---,0.00,VWS V14.01,2013-08-08 20:20:00,
2013-08-08 16:25:00,83.1,71.9,30.06,NNE,22,0.9,1.1,69,0.00,,---,0.00,VWS V14.01,2013-08-08 20:25:00,
2013-08-08 16:30:00,83.1,71.9,30.06,NNW,338,2.5,2.5,69,0.00,,---,0.00,VWS V14.01,2013-08-08 20:30:00,
2013-08-08 16:35:00,83.3,72.1,30.06,NNW,338,2.5,2.7,69,0.00,,---,0.00,VWS V14.01,2013-08-08 20:35:00,
2013-08-08 16:40:00,83.5,71.8,30.06,NNE,22,2.7,4.0,68,0.00,,---,0.00,VWS V14.01,2013-08-08 20:40:00,
2013-08-08 16:45:00,83.7,72.0,30.06,NNW,338,3.1,3.4,68,0.00,,---,0.00,VWS V14.01,2013-08-08 20:45:00,
2013-08-08 16:50:00,83.8,72.2,30.06,NNW,338,2.5,4.7,68,0.00,,---,0.00,VWS V14.01,2013-08-08 20:50:00,
2013-08-08 16:55:00,83.8,72.2,30.06,NNW,338,2.0,3.1,68,0.00,,---,0.00,VWS V14.01,2013-08-08 20:55:00,
2013-08-08 17:00:00,83.8,71.7,30.06,NNW,338,2.2,2.2,67,0.00,,---,0.00,VWS V14.01,2013-08-08 21:00:00,
2013-08-08 17:05:00,83.5,71.4,30.06,NNW,338,2.9,4.3,67,0.00,,---,0.00,VWS V14.01,2013-08-08 21:05:00,
2013-08-08 17:10:00,83.3,71.2,30.06,NNE,22,4.0,4.0,67,0.00,,---,0.00,VWS V14.01,2013-08-08 21:10:00,
2013-08-08 17:15:00,82.9,71.7,30.06,NNW,338,1.3,2.9,69,0.00,,---,0.00,VWS V14.01,2013-08-08 21:15:00,
2013-08-08 17:20:00,82.6,71.8,30.06,NNE,22,3.8,3.8,70,0.00,,---,0.00,VWS V14.01,2013-08-08 21:20:00,
2013-08-08 17:25:00,82.6,71.8,30.06,NNW,338,1.6,2.2,70,0.00,,---,0.00,VWS V14.01,2013-08-08 21:25:00,
2013-08-08 17:30:00,82.2,72.3,30.06,NE,45,2.7,3.4,72,0.00,,---,0.00,VWS V14.01,2013-08-08 21:30:00,
2013-08-08 17:35:00,81.9,71.9,30.06,NW,315,2.5,3.4,72,0.00,,---,0.00,VWS V14.01,2013-08-08 21:35:00,
2013-08-08 17:40:00,81.7,72.2,30.06,WSW,248,0.9,2.5,73,0.00,,---,0.00,VWS V14.01,2013-08-08 21:40:00,
2013-08-08 17:45:00,81.3,71.8,30.06,WNW,292,0.9,0.9,73,0.00,,---,0.00,VWS V14.01,2013-08-08 21:45:00,
2013-08-08 17:50:00,81.0,71.9,30.06,WSW,248,0.0,0.0,74,0.00,,---,0.00,VWS V14.01,2013-08-08 21:50:00,
2013-08-08 17:55:00,80.4,71.4,30.06,NNW,338,0.0,3.1,74,0.00,,---,0.00,VWS V14.01,2013-08-08 21:55:00,
2013-08-08 18:00:00,80.2,71.6,30.06,SE,135,1.6,2.2,75,0.00,,---,0.00,VWS V14.01,2013-08-08 22:00:00,
2013-08-08 18:05:00,79.7,71.5,30.06,ENE,68,0.0,0.0,76,0.00,,---,0.00,VWS V14.01,2013-08-08 22:05:00,
2013-08-08 18:10:00,79.5,71.7,30.06,WNW,292,2.2,2.2,77,0.00,,---,0.00,VWS V14.01,2013-08-08 22:10:00,
2013-08-08 18:15:00,79.2,71.7,30.06,West,270,0.0,2.0,78,0.00,,---,0.00,VWS V14.01,2013-08-08 22:15:00,
2013-08-08 18:20:00,78.6,71.6,30.06,East,90,0.0,0.0,79,0.00,,---,0.00,VWS V14.01,2013-08-08 22:20:00,
2013-08-08 18:26:00,78.3,71.6,30.06,East,90,0.0,0.0,80,0.00,,---,0.00,VWS V14.01,2013-08-08 22:26:00,
2013-08-08 18:31:00,78.3,72.0,30.06,East,90,0.0,0.0,81,0.00,,---,0.00,VWS V14.01,2013-08-08 22:31:00,
2013-08-08 18:36:00,78.1,72.1,30.06,East,90,0.0,0.0,82,0.00,,---,0.00,VWS V14.01,2013-08-08 22:36:00,
2013-08-08 18:41:00,77.9,72.3,30.06,South,180,0.0,0.0,83,0.00,,---,0.00,VWS V14.01,2013-08-08 22:41:00,
2013-08-08 18:46:00,77.9,72.7,30.06,South,180,0.0,0.0,84,0.00,,---,0.00,VWS V14.01,2013-08-08 22:46:00,
2013-08-08 18:51:00,77.7,72.5,30.06,South,180,0.0,0.0,84,0.00,,---,0.00,VWS V14.01,2013-08-08 22:51:00,
2013-08-08 18:56:00,77.7,72.8,30.06,South,180,0.0,0.0,85,0.00,,---,0.00,VWS V14.01,2013-08-08 22:56:00,
2013-08-08 19:01:00,77.7,73.2,30.06,SW,225,0.0,0.0,86,0.00,,---,0.00,VWS V14.01,2013-08-08 23:01:00,
2013-08-08 19:07:00,77.7,73.2,30.06,SW,225,0.0,0.0,86,0.00,,---,0.00,VWS V14.01,2013-08-08 23:07:00,
2013-08-08 19:12:00,77.5,73.0,30.09,SW,225,0.0,0.0,86,0.00,,---,0.00,VWS V14.01,2013-08-08 23:12:00,
2013-08-08 19:17:00,77.5,73.0,30.09,SSW,202,0.0,0.0,86,0.00,,---,0.00,VWS V14.01,2013-08-08 23:17:00,
2013-08-08 19:22:00,77.4,73.2,30.09,SSW,202,0.0,0.0,87,0.00,,---,0.00,VWS V14.01,2013-08-08 23:22:00,
2013-08-08 19:27:00,77.2,73.0,30.09,South,180,0.0,0.0,87,0.00,,---,0.00,VWS V14.01,2013-08-08 23:27:00,
2013-08-08 19:32:00,77.2,73.3,30.09,SSE,158,0.0,0.0,88,0.00,,---,0.00,VWS V14.01,2013-08-08 23:32:00,
2013-08-08 19:37:00,77.2,73.3,30.09,South,180,0.0,0.0,88,0.00,,---,0.00,VWS V14.01,2013-08-08 23:37:00,
2013-08-08 19:42:00,77.2,73.3,30.09,South,180,0.0,0.0,88,0.00,,---,0.00,VWS V14.01,2013-08-08 23:42:00,
2013-08-08 19:47:00,77.0,73.2,30.09,South,180,0.0,0.0,88,0.00,,---,0.00,VWS V14.01,2013-08-08 23:47:00,
2013-08-08 19:52:00,77.0,73.2,30.09,SSE,158,0.0,0.0,88,0.00,,---,0.00,VWS V14.01,2013-08-08 23:52:00,
2013-08-08 19:57:00,76.8,73.0,30.09,South,180,0.0,0.0,88,0.00,,---,0.00,VWS V14.01,2013-08-08 23:57:00,
2013-08-08 20:02:00,76.8,73.3,30.09,NNW,338,0.0,0.0,89,0.00,,---,0.00,VWS V14.01,2013-08-09 00:02:00,
2013-08-08 20:07:00,76.8,73.3,30.09,ENE,68,0.0,0.0,89,0.00,,---,0.00,VWS V14.01,2013-08-09 00:07:00,
2013-08-08 20:12:00,76.6,73.2,30.06,ENE,68,0.0,0.0,89,0.00,,---,0.00,VWS V14.01,2013-08-09 00:12:00,
2013-08-08 20:17:00,77.0,73.5,30.06,ENE,68,2.5,3.6,89,0.00,,---,0.00,VWS V14.01,2013-08-09 00:17:00,
2013-08-08 20:22:00,77.2,73.7,30.06,WSW,248,0.0,2.9,89,0.00,,---,0.00,VWS V14.01,2013-08-09 00:22:00,
2013-08-08 20:27:00,77.2,73.7,30.09,SSW,202,0.0,0.0,89,0.00,,---,0.00,VWS V14.01,2013-08-09 00:27:00,
2013-08-08 20:32:00,77.2,73.7,30.09,West,270,0.0,0.0,89,0.00,,---,0.00,VWS V14.01,2013-08-09 00:32:00,
2013-08-08 20:38:00,77.2,73.3,30.09,NNW,338,3.1,3.1,88,0.00,,---,0.00,VWS V14.01,2013-08-09 00:38:00,
2013-08-08 20:43:00,77.5,74.4,30.09,NNE,22,1.3,1.3,90,0.00,,---,0.00,VWS V14.01,2013-08-09 00:43:00,
2013-08-08 20:48:00,77.7,73.9,30.09,WNW,292,2.7,2.7,88,0.00,,---,0.00,VWS V14.01,2013-08-09 00:48:00,
2013-08-08 20:53:00,77.7,73.9,30.09,SE,135,0.0,0.0,88,0.00,,---,0.00,VWS V14.01,2013-08-09 00:53:00,
2013-08-08 20:58:00,77.9,74.1,30.09,NNW,338,2.5,2.5,88,0.00,,---,0.00,VWS V14.01,2013-08-09 00:58:00,
2013-08-08 21:03:00,77.9,74.1,30.09,North,0,0.9,1.1,88,0.00,,---,0.00,VWS V14.01,2013-08-09 01:03:00,
2013-08-08 21:08:00,77.7,73.6,30.09,North,0,0.0,1.6,87,0.00,,---,0.00,VWS V14.01,2013-08-09 01:08:00,
2013-08-08 21:13:00,77.9,74.1,30.09,NNW,338,3.1,3.1,88,0.00,,---,0.00,VWS V14.01,2013-08-09 01:13:00,
2013-08-08 21:18:00,77.9,74.1,30.09,NNW,338,3.6,3.6,88,0.00,,---,0.00,VWS V14.01,2013-08-09 01:18:00,
2013-08-08 21:23:00,77.9,74.1,30.09,NNE,22,1.6,2.0,88,0.00,,---,0.00,VWS V14.01,2013-08-09 01:23:00,
2013-08-08 21:29:00,77.9,74.4,30.09,NW,315,0.0,3.1,89,0.00,,---,0.00,VWS V14.01,2013-08-09 01:29:00,
2013-08-08 21:34:00,77.9,74.4,30.09,NNE,22,2.5,2.7,89,0.00,,---,0.00,VWS V14.01,2013-08-09 01:34:00,
2013-08-08 21:39:00,78.1,74.6,30.09,NW,315,2.5,2.5,89,0.00,,---,0.00,VWS V14.01,2013-08-09 01:39:00,
2013-08-08 21:44:00,78.1,74.6,30.09,NNW,338,0.0,0.0,89,0.00,,---,0.00,VWS V14.01,2013-08-09 01:44:00,
2013-08-08 21:49:00,78.1,74.6,30.09,NNW,338,2.2,2.5,89,0.00,,---,0.00,VWS V14.01,2013-08-09 01:49:00,
2013-08-08 21:54:00,78.1,74.6,30.09,WNW,292,2.9,2.9,89,0.00,,---,0.00,VWS V14.01,2013-08-09 01:54:00,
2013-08-08 21:59:00,78.1,74.6,30.09,NE,45,2.0,2.9,89,0.00,,---,0.00,VWS V14.01,2013-08-09 01:59:00,
2013-08-08 22:04:00,78.1,74.9,30.09,NNE,22,3.8,4.0,90,0.00,,---,0.00,VWS V14.01,2013-08-09 02:04:00,
2013-08-08 22:09:00,77.9,74.4,30.09,NNE,22,1.1,3.4,89,0.00,,---,0.00,VWS V14.01,2013-08-09 02:09:00,
2013-08-08 22:14:00,77.9,74.7,30.09,NNE,22,2.5,2.7,90,0.00,,---,0.00,VWS V14.01,2013-08-09 02:14:00,
2013-08-08 22:19:00,77.9,74.7,30.09,NNE,22,0.0,1.1,90,0.00,,---,0.00,VWS V14.01,2013-08-09 02:19:00,
2013-08-08 22:24:00,77.9,74.7,30.09,NNE,22,2.7,2.7,90,0.00,,---,0.00,VWS V14.01,2013-08-09 02:24:00,
2013-08-08 22:29:00,77.9,75.1,30.09,NNE,22,0.0,2.9,91,0.00,,---,0.00,VWS V14.01,2013-08-09 02:29:00,
2013-08-08 22:34:00,77.9,74.7,30.09,NNW,338,2.9,2.9,90,0.00,,---,0.00,VWS V14.01,2013-08-09 02:34:00,
2013-08-08 22:39:00,77.9,75.1,30.09,East,90,0.0,1.1,91,0.00,,---,0.00,VWS V14.01,2013-08-09 02:39:00,
2013-08-08 22:44:00,77.9,75.1,30.09,NNW,338,0.0,0.0,91,0.00,,---,0.00,VWS V14.01,2013-08-09 02:44:00,
2013-08-08 22:49:00,77.9,75.1,30.09,NNW,338,2.7,3.8,91,0.00,,---,0.00,VWS V14.01,2013-08-09 02:49:00,
2013-08-08 22:54:00,77.9,75.1,30.09,WSW,248,2.7,2.7,91,0.00,,---,0.00,VWS V14.01,2013-08-09 02:54:00,
2013-08-08 22:59:00,77.9,75.1,30.09,South,180,0.0,3.1,91,0.00,,---,0.00,VWS V14.01,2013-08-09 02:59:00,
2013-08-08 23:04:00,77.7,74.9,30.09,NNW,338,2.7,2.9,91,0.00,,---,0.00,VWS V14.01,2013-08-09 03:04:00,
2013-08-08 23:09:00,77.7,74.9,30.09,NNW,338,3.8,3.8,91,0.00,,---,0.00,VWS V14.01,2013-08-09 03:09:00,
2013-08-08 23:14:00,77.9,75.4,30.09,East,90,2.5,2.9,92,0.00,,---,0.00,VWS V14.01,2013-08-09 03:14:00,
2013-08-08 23:19:00,77.7,75.2,30.09,WNW,292,0.0,0.0,92,0.00,,---,0.00,VWS V14.01,2013-08-09 03:19:00,
2013-08-08 23:24:00,77.7,75.2,30.09,NW,315,2.5,4.0,92,0.00,,---,0.00,VWS V14.01,2013-08-09 03:24:00,
2013-08-08 23:29:00,77.9,75.7,30.09,North,0,1.1,3.4,93,0.00,,---,0.00,VWS V14.01,2013-08-09 03:29:00,
2013-08-08 23:34:00,77.9,75.7,30.09,NNW,338,1.1,1.1,93,0.00,,---,0.00,VWS V14.01,2013-08-09 03:34:00,
2013-08-08 23:39:00,77.7,75.5,30.09,North,0,0.0,0.0,93,0.00,,---,0.00,VWS V14.01,2013-08-09 03:39:00,
2013-08-08 23:44:00,77.9,75.7,30.09,North,0,1.3,2.5,93,0.00,,---,0.00,VWS V14.01,2013-08-09 03:44:00,
2013-08-08 23:49:00,77.7,75.5,30.09,NNW,338,0.0,0.0,93,0.00,,---,0.00,VWS V14.01,2013-08-09 03:49:00,
2013-08-08 23:54:00,77.7,75.5,30.06,ENE,68,2.0,2.5,93,0.00,,---,0.00,VWS V14.01,2013-08-09 03:54:00,
2013-08-08 23:59:00,77.7,75.5,30.06,WNW,292,0.0,1.1,93,0.00,,---,0.00,VWS V14.01,2013-08-09 03:59:00,